Time;durP1;ratioP1;P1;durP2;ratioP2;P2;SDS_P1;SDS_P2;PMS_P1;PMS_P2;Temp;Humidity;BMP_temperature;BMP_pressure;BME280_temperature;BME280_humidity;BME280_pressure;Samples;Min_cycle;Max_cycle;Signal;HPM_P1;HPM_P2
2021/10/25 00:01:47;;;;;;;2.30;2.07;;;;;;;;;;5033912;28;20246;-86
2021/10/25 00:04:14;;;;;;;2.73;2.20;;;;;;;;;;5015842;28;20222;-86
2021/10/25 00:06:41;;;;;;;2.40;2.20;;;;;;;;;;5035511;28;20206;-85
2021/10/25 00:09:08;;;;;;;1.77;1.63;;;;;;;;;;5030900;28;20203;-85
2021/10/25 00:11:35;;;;;;;2.47;2.27;;;;;;;;;;5033174;28;20236;-86
2021/10/25 00:14:03;;;;;;;1.93;1.73;;;;;;;;;;5034048;28;20227;-85
2021/10/25 00:16:30;;;;;;;2.03;1.93;;;;;;;;;;5040382;28;20233;-86
2021/10/25 00:18:57;;;;;;;2.20;2.00;;;;;;;;;;5044355;28;20205;-86
2021/10/25 00:21:25;;;;;;;2.20;2.00;;;;;;;;;;5041276;28;20206;-86
2021/10/25 00:23:52;;;;;;;2.50;2.00;;;;;;;;;;5029406;28;20234;-86
2021/10/25 00:26:19;;;;;;;2.30;2.10;;;;;;;;;;5042286;28;20791;-85
2021/10/25 00:28:46;;;;;;;2.80;1.77;;;;;;;;;;5046123;28;20201;-85
2021/10/25 00:31:14;;;;;;;2.40;2.10;;;;;;;;;;5025230;28;20195;-86
2021/10/25 00:33:41;;;;;;;2.03;1.93;;;;;;;;;;5044679;28;20202;-85
2021/10/25 00:36:10;;;;;;;1.90;1.70;;;;;;;;;;5041301;28;20195;-86
2021/10/25 00:38:37;;;;;;;2.13;1.93;;;;;;;;;;5043482;28;20210;-85
2021/10/25 00:41:04;;;;;;;2.07;1.90;;;;;;;;;;5040187;28;20214;-86
2021/10/25 00:43:32;;;;;;;3.43;2.40;;;;;;;;;;5036352;28;20230;-86
2021/10/25 00:45:59;;;;;;;2.57;2.10;;;;;;;;;;5045316;28;20195;-86
2021/10/25 00:48:27;;;;;;;2.20;2.00;;;;;;;;;;5046696;28;20637;-86
2021/10/25 00:50:54;;;;;;;2.33;2.13;;;;;;;;;;5043380;28;20210;-85
2021/10/25 00:53:26;;;;;;;1.93;1.80;;;;;;;;;;5046096;28;20274;-85
2021/10/25 00:55:53;;;;;;;2.87;2.00;;;;;;;;;;5028676;28;20191;-85
2021/10/25 00:58:21;;;;;;;2.53;1.83;;;;;;;;;;5044907;28;20210;-85
2021/10/25 01:00:48;;;;;;;2.50;1.97;;;;;;;;;;5046817;28;20194;-86
2021/10/25 01:03:16;;;;;;;2.67;1.90;;;;;;;;;;5041226;28;20241;-85
2021/10/25 01:05:43;;;;;;;1.87;1.77;;;;;;;;;;5045494;28;20260;-86
2021/10/25 01:08:10;;;;;;;2.33;1.90;;;;;;;;;;5045062;28;20229;-85
2021/10/25 01:10:38;;;;;;;2.10;1.90;;;;;;;;;;5046890;28;20230;-86
2021/10/25 01:13:05;;;;;;;2.00;1.90;;;;;;;;;;5041529;28;20183;-86
2021/10/25 01:15:32;;;;;;;1.97;1.83;;;;;;;;;;5039966;28;20230;-86
2021/10/25 01:18:01;;;;;;;2.40;2.20;;;;;;;;;;5041419;28;20198;-86
2021/10/25 01:20:29;;;;;;;2.07;1.97;;;;;;;;;;5047278;28;20199;-85
2021/10/25 01:22:56;;;;;;;2.33;2.10;;;;;;;;;;5042454;28;20249;-85
2021/10/25 01:25:24;;;;;;;2.20;1.90;;;;;;;;;;5046668;28;20206;-85
2021/10/25 01:27:51;;;;;;;2.33;2.13;;;;;;;;;;5036855;28;20215;-86
2021/10/25 01:30:19;;;;;;;2.20;2.00;;;;;;;;;;5046346;28;20190;-86
2021/10/25 01:32:47;;;;;;;2.10;2.00;;;;;;;;;;5042749;28;20209;-85
2021/10/25 01:35:15;;;;;;;2.50;2.10;;;;;;;;;;5046459;28;20198;-86
2021/10/25 01:37:42;;;;;;;2.27;2.07;;;;;;;;;;5036616;28;20394;-85
2021/10/25 01:40:11;;;;;;;2.27;1.93;;;;;;;;;;5046669;28;20676;-86
2021/10/25 01:42:38;;;;;;;3.00;1.93;;;;;;;;;;5045183;28;20709;-86
2021/10/25 01:45:07;;;;;;;2.30;1.80;;;;;;;;;;5028301;28;20746;-85
2021/10/25 01:47:34;;;;;;;2.07;1.87;;;;;;;;;;5040724;28;20198;-85
2021/10/25 01:50:01;;;;;;;1.70;1.60;;;;;;;;;;5042761;28;20245;-85
2021/10/25 01:52:29;;;;;;;2.33;2.13;;;;;;;;;;5035422;28;20199;-85
2021/10/25 01:54:56;;;;;;;2.13;1.93;;;;;;;;;;5040759;28;20684;-85
2021/10/25 01:57:23;;;;;;;1.93;1.73;;;;;;;;;;5032727;28;20709;-86
2021/10/25 01:59:50;;;;;;;2.20;2.00;;;;;;;;;;5039458;28;20202;-85
2021/10/25 02:02:21;;;;;;;2.10;1.83;;;;;;;;;;5026756;28;20223;-86
2021/10/25 02:04:49;;;;;;;1.80;1.70;;;;;;;;;;5039604;28;20209;-85
2021/10/25 02:07:16;;;;;;;2.77;1.90;;;;;;;;;;5026982;28;20194;-85
2021/10/25 02:09:44;;;;;;;2.63;2.20;;;;;;;;;;5039858;28;20210;-86
2021/10/25 02:12:12;;;;;;;1.93;1.83;;;;;;;;;;5044084;28;20194;-86
2021/10/25 02:14:39;;;;;;;2.00;1.50;;;;;;;;;;5031181;28;20648;-86
2021/10/25 02:17:06;;;;;;;1.90;1.70;;;;;;;;;;5046628;28;20199;-87
2021/10/25 02:19:34;;;;;;;2.40;1.90;;;;;;;;;;5039260;28;20454;-86
2021/10/25 02:22:01;;;;;;;2.10;1.90;;;;;;;;;;5030859;28;20194;-86
2021/10/25 02:24:28;;;;;;;2.00;1.90;;;;;;;;;;5037100;28;20222;-87
2021/10/25 02:26:56;;;;;;;2.43;1.80;;;;;;;;;;5025605;28;20211;-86
2021/10/25 02:29:23;;;;;;;1.80;1.70;;;;;;;;;;5018449;28;20198;-86
2021/10/25 02:31:50;;;;;;;2.20;2.00;;;;;;;;;;5043891;28;20206;-86
2021/10/25 02:34:17;;;;;;;2.30;2.10;;;;;;;;;;5019379;28;20206;-86
2021/10/25 02:36:45;;;;;;;1.77;1.67;;;;;;;;;;5035145;28;20198;-86
2021/10/25 02:39:13;;;;;;;2.27;1.80;;;;;;;;;;5037325;28;20846;-86
2021/10/25 02:41:40;;;;;;;1.63;1.53;;;;;;;;;;5041908;28;20227;-86
2021/10/25 02:44:07;;;;;;;1.93;1.57;;;;;;;;;;5040256;28;20237;-86
2021/10/25 02:46:35;;;;;;;1.60;1.50;;;;;;;;;;5043209;28;20206;-86
2021/10/25 02:49:02;;;;;;;1.77;1.67;;;;;;;;;;5037254;28;20206;-86
2021/10/25 02:51:29;;;;;;;1.63;1.53;;;;;;;;;;5038477;28;20213;-86
2021/10/25 02:53:56;;;;;;;1.70;1.60;;;;;;;;;;5015819;28;20183;-87
2021/10/25 02:56:23;;;;;;;2.43;2.23;;;;;;;;;;5041568;28;20209;-87
2021/10/25 02:58:51;;;;;;;1.93;1.73;;;;;;;;;;5030369;28;20654;-86
2021/10/25 03:01:18;;;;;;;2.47;2.10;;;;;;;;;;5041809;28;20669;-86
2021/10/25 03:03:45;;;;;;;2.07;1.87;;;;;;;;;;5034366;28;20227;-86
2021/10/25 03:06:13;;;;;;;2.27;1.60;;;;;;;;;;5039380;28;20194;-86
2021/10/25 03:08:40;;;;;;;1.80;1.60;;;;;;;;;;5027200;28;20203;-87
2021/10/25 03:11:08;;;;;;;2.47;1.90;;;;;;;;;;5040482;28;20229;-87
2021/10/25 03:13:35;;;;;;;2.03;1.70;;;;;;;;;;5037830;28;20206;-86
2021/10/25 03:16:05;;;;;;;1.70;1.60;;;;;;;;;;5005501;28;20200;-86
2021/10/25 03:18:33;;;;;;;2.03;1.87;;;;;;;;;;5036282;28;20202;-86
2021/10/25 03:21:00;;;;;;;1.60;1.50;;;;;;;;;;5020644;28;20206;-87
2021/10/25 03:23:27;;;;;;;2.20;1.70;;;;;;;;;;5030066;28;20466;-87
2021/10/25 03:25:54;;;;;;;1.80;1.70;;;;;;;;;;5039164;28;20584;-87
2021/10/25 03:28:21;;;;;;;1.70;1.60;;;;;;;;;;5044557;28;20197;-87
2021/10/25 03:30:49;;;;;;;1.70;1.50;;;;;;;;;;5041630;28;20202;-87
2021/10/25 03:33:16;;;;;;;1.70;1.60;;;;;;;;;;5043733;28;20289;-86
2021/10/25 03:35:43;;;;;;;1.73;1.60;;;;;;;;;;5041017;28;20205;-87
2021/10/25 03:38:12;;;;;;;1.80;1.63;;;;;;;;;;5039891;28;20217;-87
2021/10/25 03:40:43;;;;;;;1.90;1.80;;;;;;;;;;5032292;28;20207;-87
2021/10/25 03:43:15;;;;;;;2.03;1.83;;;;;;;;;;5038254;28;20608;-86
2021/10/25 03:45:50;;;;;;;1.70;1.60;;;;;;;;;;5041196;28;20198;-87
2021/10/25 03:48:25;;;;;;;1.80;1.70;;;;;;;;;;5041680;28;20213;-87
2021/10/25 03:50:53;;;;;;;1.40;1.30;;;;;;;;;;5037463;28;20222;-87
2021/10/25 03:53:31;;;;;;;1.90;1.80;;;;;;;;;;5026010;28;20210;-86
2021/10/25 03:56:07;;;;;;;2.07;1.50;;;;;;;;;;5037188;28;20197;-87
2021/10/25 03:59:04;;;;;;;1.77;1.67;;;;;;;;;;5044933;28;20186;-87
2021/10/25 04:02:21;;;;;;;1.60;1.50;;;;;;;;;;5041411;28;20226;-87
2021/10/25 04:26:53;;;;;;;2.40;1.80;;;;;;;;;;5042326;28;20591;-86
2021/10/25 04:29:25;;;;;;;2.43;1.73;;;;;;;;;;5031417;28;20205;-87
2021/10/25 04:31:52;;;;;;;2.13;1.93;;;;;;;;;;5045311;28;20209;-86
2021/10/25 04:34:20;;;;;;;2.03;1.70;;;;;;;;;;5030127;28;20210;-86
2021/10/25 04:36:47;;;;;;;2.27;1.70;;;;;;;;;;5027311;28;20195;-86
2021/10/25 04:39:14;;;;;;;3.23;1.60;;;;;;;;;;5042858;28;20253;-86
2021/10/25 04:41:42;;;;;;;2.43;1.63;;;;;;;;;;5042743;28;20183;-86
2021/10/25 04:44:09;;;;;;;1.53;1.43;;;;;;;;;;5046039;28;20214;-87
2021/10/25 04:46:36;;;;;;;3.10;1.73;;;;;;;;;;5044914;28;20634;-87
2021/10/25 04:49:04;;;;;;;2.60;1.57;;;;;;;;;;5042869;28;20394;-92
2021/10/25 04:51:34;;;;;;;1.97;1.73;;;;;;;;;;5029006;28;20211;-85
2021/10/25 04:54:02;;;;;;;2.10;1.90;;;;;;;;;;5039823;28;20206;-84
2021/10/25 04:56:30;;;;;;;1.50;1.27;;;;;;;;;;5016852;28;20187;-83
2021/10/25 04:58:57;;;;;;;1.70;1.60;;;;;;;;;;5039213;28;20218;-83
2021/10/25 05:01:24;;;;;;;2.10;1.90;;;;;;;;;;5044426;28;20217;-84
2021/10/25 05:03:52;;;;;;;2.17;1.60;;;;;;;;;;5037880;28;20466;-84
2021/10/25 05:06:19;;;;;;;3.30;1.73;;;;;;;;;;5043709;28;20373;-88
2021/10/25 05:08:47;;;;;;;2.93;1.90;;;;;;;;;;5044519;28;20194;-84
2021/10/25 05:11:14;;;;;;;2.20;1.60;;;;;;;;;;5024617;28;20237;-86
2021/10/25 05:13:42;;;;;;;2.67;2.43;;;;;;;;;;5017209;28;20195;-85
2021/10/25 05:16:10;;;;;;;2.13;1.80;;;;;;;;;;5017360;28;20210;-86
2021/10/25 05:18:37;;;;;;;1.63;1.50;;;;;;;;;;5016893;28;20213;-84
2021/10/25 05:21:04;;;;;;;1.90;1.40;;;;;;;;;;5023143;28;20211;-85
2021/10/25 05:23:31;;;;;;;2.70;1.70;;;;;;;;;;5019925;28;20698;-81
2021/10/25 05:25:59;;;;;;;3.10;1.60;;;;;;;;;;5021880;28;20217;-83
2021/10/25 05:28:27;;;;;;;3.10;1.80;;;;;;;;;;5024745;28;20199;-84
2021/10/25 05:30:54;;;;;;;2.87;2.00;;;;;;;;;;5024216;28;20199;-84
2021/10/25 05:33:21;;;;;;;3.17;1.80;;;;;;;;;;5022497;28;20199;-84
2021/10/25 05:35:48;;;;;;;1.73;1.53;;;;;;;;;;5023435;28;20202;-84
2021/10/25 05:38:16;;;;;;;3.10;2.13;;;;;;;;;;5019942;28;20226;-84
2021/10/25 05:40:44;;;;;;;3.00;1.80;;;;;;;;;;5026460;28;20214;-84
2021/10/25 05:43:11;;;;;;;2.23;1.63;;;;;;;;;;5014358;28;20719;-84
2021/10/25 05:45:39;;;;;;;2.43;2.00;;;;;;;;;;5014570;28;20203;-84
2021/10/25 05:48:06;;;;;;;1.90;1.70;;;;;;;;;;5012788;28;20576;-84
2021/10/25 05:50:34;;;;;;;2.63;1.60;;;;;;;;;;5016463;28;20211;-84
2021/10/25 05:53:01;;;;;;;1.37;1.27;;;;;;;;;;5012467;28;20203;-84
2021/10/25 05:55:31;;;;;;;2.00;1.80;;;;;;;;;;5018994;28;20847;-84
2021/10/25 05:57:58;;;;;;;1.80;1.70;;;;;;;;;;5025267;28;20198;-83
2021/10/25 06:00:31;;;;;;;3.70;2.07;;;;;;;;;;5023359;28;20693;-83
2021/10/25 06:02:59;;;;;;;1.83;1.50;;;;;;;;;;5003867;28;20224;-84
2021/10/25 06:05:29;;;;;;;2.47;1.57;;;;;;;;;;5022896;28;20223;-85
2021/10/25 06:08:00;;;;;;;3.43;2.20;;;;;;;;;;5027829;28;20207;-84
2021/10/25 06:10:31;;;;;;;2.27;1.87;;;;;;;;;;5024087;28;20246;-84
2021/10/25 06:13:04;;;;;;;2.37;1.83;;;;;;;;;;5025313;28;20211;-84
2021/10/25 06:15:38;;;;;;;2.53;1.87;;;;;;;;;;5009536;28;20683;-82
2021/10/25 06:18:09;;;;;;;2.17;1.97;;;;;;;;;;5025419;28;20194;-82
2021/10/25 06:20:37;;;;;;;1.90;1.70;;;;;;;;;;5022625;28;20199;-83
2021/10/25 06:23:12;;;;;;;2.87;2.00;;;;;;;;;;5025141;28;20203;-82
2021/10/25 06:25:40;;;;;;;3.33;2.00;;;;;;;;;;5017245;28;20234;-82
2021/10/25 06:28:07;;;;;;;2.50;1.80;;;;;;;;;;5023852;28;20218;-83
2021/10/25 06:30:35;;;;;;;1.70;1.60;;;;;;;;;;5014923;28;20642;-83
2021/10/25 06:33:04;;;;;;;2.03;1.83;;;;;;;;;;5023760;28;20273;-83
2021/10/25 06:35:32;;;;;;;2.83;1.73;;;;;;;;;;5018623;28;20199;-82
2021/10/25 06:40:28;;;;;;;1.90;1.70;;;;;;;;;;5025669;28;20203;-82
2021/10/25 06:42:55;;;;;;;4.10;2.03;;;;;;;;;;5024171;28;20203;-83
2021/10/25 06:45:23;;;;;;;2.13;1.90;;;;;;;;;;5024917;28;20231;-83
2021/10/25 06:47:52;;;;;;;2.47;1.80;;;;;;;;;;5019596;28;20854;-82
2021/10/25 06:50:21;;;;;;;1.97;1.60;;;;;;;;;;5005540;28;20211;-83
2021/10/25 06:52:49;;;;;;;2.40;1.63;;;;;;;;;;5021069;28;20195;-82
2021/10/25 06:55:16;;;;;;;2.67;1.50;;;;;;;;;;5011461;28;20211;-82
2021/10/25 06:57:44;;;;;;;2.43;2.00;;;;;;;;;;5019683;28;20210;-82
2021/10/25 07:00:13;;;;;;;1.60;1.50;;;;;;;;;;5024670;28;20199;-83
2021/10/25 07:02:40;;;;;;;1.83;1.70;;;;;;;;;;5013115;28;20762;-83
2021/10/25 07:05:08;;;;;;;2.20;1.53;;;;;;;;;;5014396;28;20230;-83
2021/10/25 07:07:36;;;;;;;2.67;1.87;;;;;;;;;;5013672;28;20211;-83
2021/10/25 07:10:04;;;;;;;2.17;1.50;;;;;;;;;;5017901;28;20226;-85
2021/10/25 07:12:31;;;;;;;1.77;1.67;;;;;;;;;;5043126;28;20668;-85
2021/10/25 07:15:00;;;;;;;1.83;1.67;;;;;;;;;;5039124;28;20222;-85
2021/10/25 07:20:27;;;;;;;2.20;1.57;;;;;;;;;;5042603;28;20194;-85
2021/10/25 07:23:30;;;;;;;1.90;1.67;;;;;;;;;;5044415;28;20201;-85
2021/10/25 07:26:31;;;;;;;2.33;2.10;;;;;;;;;;5033271;28;20249;-86
2021/10/25 08:20:54;;;;;;;2.00;1.80;;;;;;;;;;5099783;27;20958;-66
2021/10/25 08:23:25;;;;;;;2.63;2.03;;;;;;;;;;5070463;28;20212;-66
2021/10/25 08:25:54;;;;;;;2.60;1.77;;;;;;;;;;5079155;28;20193;-66
2021/10/25 08:28:26;;;;;;;1.83;1.60;;;;;;;;;;5057247;28;20245;-66
2021/10/25 08:30:59;;;;;;;3.93;1.87;;;;;;;;;;5077226;28;20227;-64
2021/10/25 08:36:36;;;;;;;1.63;1.50;;;;;;;;;;5083555;28;20404;-64
2021/10/25 08:42:04;;;;;;;1.90;1.60;;;;;;;;;;5084549;28;20201;-66
2021/10/25 08:44:33;;;;;;;2.50;2.07;;;;;;;;;;5067553;28;20218;-66
2021/10/25 08:47:04;;;;;;;2.00;1.83;;;;;;;;;;5063280;28;20562;-66
2021/10/25 08:49:36;;;;;;;2.20;1.93;;;;;;;;;;5075062;28;20221;-66
2021/10/25 08:52:07;;;;;;;1.97;1.77;;;;;;;;;;5084167;28;20194;-66
2021/10/25 08:54:41;;;;;;;2.00;1.80;;;;;;;;;;5074621;28;20228;-66
2021/10/25 08:57:16;;;;;;;1.70;1.60;;;;;;;;;;5079182;28;20213;-64
2021/10/25 09:00:16;;;;;;;2.40;2.20;;;;;;;;;;5073302;28;20671;-65
2021/10/25 09:02:58;;;;;;;1.90;1.67;;;;;;;;;;5082590;28;20219;-64
2021/10/25 09:05:38;;;;;;;2.30;1.90;;;;;;;;;;5060910;28;20197;-65
2021/10/25 09:08:18;;;;;;;1.50;1.40;;;;;;;;;;5077400;28;20232;-64
2021/10/25 09:10:48;;;;;;;2.00;1.73;;;;;;;;;;5082473;28;20211;-65
2021/10/25 09:13:30;;;;;;;2.63;1.80;;;;;;;;;;5066462;28;20208;-66
2021/10/25 09:16:17;;;;;;;2.53;1.70;;;;;;;;;;5076071;28;20190;-66
2021/10/25 09:18:55;;;;;;;3.60;2.10;;;;;;;;;;5063526;28;20247;-66
2021/10/25 09:21:38;;;;;;;2.57;2.10;;;;;;;;;;5062342;28;20233;-64
2021/10/25 09:24:26;;;;;;;3.00;1.93;;;;;;;;;;5066251;28;20271;-64
2021/10/25 09:27:14;;;;;;;3.10;1.90;;;;;;;;;;5039822;28;20204;-64
2021/10/25 09:29:52;;;;;;;2.53;1.87;;;;;;;;;;5044961;28;20711;-64
2021/10/25 09:32:30;;;;;;;5.17;2.50;;;;;;;;;;5050270;28;20206;-66
2021/10/25 09:35:05;;;;;;;2.93;2.20;;;;;;;;;;5047177;28;20194;-66
2021/10/25 09:37:48;;;;;;;4.50;2.53;;;;;;;;;;5065237;28;20652;-65
2021/10/25 09:41:34;;;;;;;3.67;2.53;;;;;;;;;;5063544;28;20618;-64
2021/10/25 09:49:19;;;;;;;2.47;2.20;;;;;;;;;;5047573;28;20240;-67
2021/10/25 09:51:57;;;;;;;2.23;1.80;;;;;;;;;;5068951;28;20188;-65
2021/10/25 09:54:29;;;;;;;3.13;2.00;;;;;;;;;;5062208;28;20229;-65
2021/10/25 09:57:50;;;;;;;2.87;2.07;;;;;;;;;;5051185;28;20213;-66
2021/10/25 09:59:53;;;;;;;2.17;1.90;;;;;;;;;;5048094;28;20287;-66
2021/10/25 10:02:30;;;;;;;2.80;2.27;;;;;;;;;;5070323;28;20271;-67
2021/10/25 10:05:06;;;;;;;2.50;1.80;;;;;;;;;;5054922;28;20204;-66
2021/10/25 10:07:39;;;;;;;2.50;2.10;;;;;;;;;;5058785;28;20213;-65
2021/10/25 10:10:12;;;;;;;2.67;1.90;;;;;;;;;;5064761;28;20222;-66
2021/10/25 10:12:44;;;;;;;3.07;2.23;;;;;;;;;;5062243;28;20197;-68
2021/10/25 10:15:18;;;;;;;2.30;2.00;;;;;;;;;;5066918;28;20201;-64
2021/10/25 10:18:00;;;;;;;3.73;1.97;;;;;;;;;;5048215;28;20276;-64
2021/10/25 10:20:53;;;;;;;2.37;2.17;;;;;;;;;;5050295;28;20232;-64
2021/10/25 10:23:27;;;;;;;3.13;2.33;;;;;;;;;;5061967;28;20202;-64
2021/10/25 10:26:04;;;;;;;2.27;2.00;;;;;;;;;;5050537;28;20225;-65
2021/10/25 10:28:40;;;;;;;2.70;2.10;;;;;;;;;;5062892;28;20209;-65
2021/10/25 10:31:12;;;;;;;2.97;2.30;;;;;;;;;;5062624;28;20201;-65
2021/10/25 10:33:52;;;;;;;2.60;2.40;;;;;;;;;;5056929;28;20317;-66
2021/10/25 10:36:33;;;;;;;4.13;2.20;;;;;;;;;;5055049;28;20224;-65
2021/10/25 10:39:17;;;;;;;2.97;2.13;;;;;;;;;;5057768;28;20241;-65
2021/10/25 10:42:01;;;;;;;2.40;1.73;;;;;;;;;;5056696;28;20288;-65
2021/10/25 10:44:58;;;;;;;2.47;2.20;;;;;;;;;;5045590;28;20305;-65
2021/10/25 10:47:37;;;;;;;2.70;1.77;;;;;;;;;;5063916;28;20267;-65
2021/10/25 10:50:18;;;;;;;2.13;1.83;;;;;;;;;;5064493;28;20518;-65
2021/10/25 10:53:13;;;;;;;2.33;1.93;;;;;;;;;;5062048;28;20210;-66
2021/10/25 10:55:57;;;;;;;3.87;1.80;;;;;;;;;;5065751;28;20259;-65
2021/10/25 10:58:52;;;;;;;2.57;1.77;;;;;;;;;;5057695;28;20198;-65
2021/10/25 11:01:20;;;;;;;3.33;1.77;;;;;;;;;;5060869;28;20209;-65
2021/10/25 11:04:02;;;;;;;2.80;2.30;;;;;;;;;;5060648;28;20294;-66
2021/10/25 11:06:59;;;;;;;2.63;2.17;;;;;;;;;;5063375;28;20727;-66
2021/10/25 11:09:31;;;;;;;2.27;1.67;;;;;;;;;;5058507;28;20316;-66
2021/10/25 11:12:24;;;;;;;3.07;2.20;;;;;;;;;;5062172;28;20282;-67
2021/10/25 11:15:03;;;;;;;4.83;2.40;;;;;;;;;;5045249;28;20219;-67
2021/10/25 11:17:36;;;;;;;2.30;1.70;;;;;;;;;;5060992;28;20202;-64
2021/10/25 11:20:08;;;;;;;2.83;2.27;;;;;;;;;;5055016;28;20218;-65
2021/10/25 11:22:39;;;;;;;2.13;1.93;;;;;;;;;;5044869;28;20239;-66
2021/10/25 11:25:10;;;;;;;2.83;2.20;;;;;;;;;;5038038;28;20614;-66
2021/10/25 11:27:40;;;;;;;2.63;2.40;;;;;;;;;;5024848;28;20252;-66
2021/10/25 11:30:18;;;;;;;3.00;1.90;;;;;;;;;;5028512;28;20272;-65
2021/10/25 11:32:49;;;;;;;2.23;1.93;;;;;;;;;;5032027;28;20222;-65
2021/10/25 11:35:20;;;;;;;2.83;1.80;;;;;;;;;;5032790;28;20195;-66
2021/10/25 11:38:04;;;;;;;2.50;1.97;;;;;;;;;;5037972;28;20301;-67
2021/10/25 11:40:34;;;;;;;2.50;1.90;;;;;;;;;;5031165;28;20218;-66
2021/10/25 11:43:05;;;;;;;2.27;1.80;;;;;;;;;;5040934;28;20198;-66
2021/10/25 11:45:38;;;;;;;2.87;2.40;;;;;;;;;;5029296;28;20222;-66
2021/10/25 11:48:09;;;;;;;2.47;1.83;;;;;;;;;;5040274;28;20199;-67
2021/10/25 11:50:41;;;;;;;2.03;1.80;;;;;;;;;;5029033;28;20283;-66
2021/10/25 11:53:12;;;;;;;2.43;1.80;;;;;;;;;;5038300;28;20645;-66
2021/10/25 11:55:44;;;;;;;1.70;1.57;;;;;;;;;;5029223;28;20708;-65
2021/10/25 11:58:20;;;;;;;2.97;1.80;;;;;;;;;;5036936;28;20211;-65
2021/10/25 12:00:50;;;;;;;2.00;1.80;;;;;;;;;;5041837;28;20202;-64
2021/10/25 12:03:22;;;;;;;2.83;2.00;;;;;;;;;;5025115;28;20211;-64
2021/10/25 12:05:53;;;;;;;2.33;2.07;;;;;;;;;;5027808;28;20195;-64
2021/10/25 12:08:27;;;;;;;3.33;2.10;;;;;;;;;;5033216;28;20271;-64
2021/10/25 12:11:02;;;;;;;2.00;1.80;;;;;;;;;;5030621;28;20214;-66
2021/10/25 12:13:37;;;;;;;2.73;1.83;;;;;;;;;;5036471;28;20233;-66
2021/10/25 12:16:13;;;;;;;2.00;1.80;;;;;;;;;;5024778;28;20206;-66
2021/10/25 12:18:44;;;;;;;1.90;1.70;;;;;;;;;;5038556;28;20203;-66
2021/10/25 12:21:14;;;;;;;2.50;2.13;;;;;;;;;;5061610;28;20213;-66
2021/10/25 12:23:55;;;;;;;2.37;1.90;;;;;;;;;;5059941;28;20642;-66
2021/10/25 12:26:28;;;;;;;2.57;1.70;;;;;;;;;;5065098;28;20262;-66
2021/10/25 12:29:22;;;;;;;2.13;1.80;;;;;;;;;;5062881;28;20217;-67
2021/10/25 12:32:07;;;;;;;3.23;2.00;;;;;;;;;;5061706;28;20231;-66
2021/10/25 12:34:52;;;;;;;1.77;1.67;;;;;;;;;;5063392;28;20620;-66
2021/10/25 12:37:27;;;;;;;2.50;2.13;;;;;;;;;;5057632;28;20206;-64
2021/10/25 12:40:21;;;;;;;2.03;1.67;;;;;;;;;;5037888;28;20202;-66
2021/10/25 12:42:59;;;;;;;2.47;1.70;;;;;;;;;;5057384;28;20199;-67
2021/10/25 12:45:39;;;;;;;1.60;1.40;;;;;;;;;;5061565;28;20205;-65
2021/10/25 12:48:20;;;;;;;3.13;1.43;;;;;;;;;;5043976;28;20586;-64
2021/10/25 12:51:10;;;;;;;2.00;1.80;;;;;;;;;;5052605;28;20206;-64
2021/10/25 12:53:45;;;;;;;1.50;1.40;;;;;;;;;;5059647;28;20686;-65
2021/10/25 12:56:26;;;;;;;1.80;1.57;;;;;;;;;;5049927;28;20209;-66
2021/10/25 12:59:14;;;;;;;2.00;1.80;;;;;;;;;;5051782;28;20189;-66
2021/10/25 13:01:58;;;;;;;2.97;1.80;;;;;;;;;;5067850;28;20225;-65
2021/10/25 13:04:30;;;;;;;2.00;1.73;;;;;;;;;;5050693;28;20204;-65
2021/10/25 13:07:14;;;;;;;1.73;1.53;;;;;;;;;;5069895;28;20209;-64
2021/10/25 13:10:01;;;;;;;1.70;1.60;;;;;;;;;;5043161;28;20325;-64
2021/10/25 13:12:41;;;;;;;1.63;1.40;;;;;;;;;;5065126;28;20205;-65
2021/10/25 13:15:15;;;;;;;2.20;1.40;;;;;;;;;;5064465;28;20517;-64
2021/10/25 13:17:47;;;;;;;1.40;1.17;;;;;;;;;;5041175;28;20720;-65
2021/10/25 13:20:21;;;;;;;2.53;1.53;;;;;;;;;;5069184;28;20230;-64
2021/10/25 13:23:06;;;;;;;3.40;1.70;;;;;;;;;;5062947;28;20229;-65
2021/10/25 13:25:41;;;;;;;2.37;1.43;;;;;;;;;;5063822;28;20202;-65
2021/10/25 13:28:23;;;;;;;1.60;1.50;;;;;;;;;;5062628;28;20201;-65
2021/10/25 13:31:01;;;;;;;1.90;1.73;;;;;;;;;;5067638;28;20711;-65
2021/10/25 13:33:36;;;;;;;1.50;1.37;;;;;;;;;;5055135;28;20668;-65
2021/10/25 13:36:09;;;;;;;1.93;1.70;;;;;;;;;;5027101;28;20585;-65
2021/10/25 13:39:01;;;;;;;1.70;1.60;;;;;;;;;;5064499;28;20202;-66
2021/10/25 13:41:32;;;;;;;1.90;1.37;;;;;;;;;;5065630;28;20267;-63
2021/10/25 13:44:05;;;;;;;1.73;1.50;;;;;;;;;;5040707;28;20608;-65
2021/10/25 13:46:39;;;;;;;1.77;1.67;;;;;;;;;;5055483;28;20629;-66
2021/10/25 13:49:11;;;;;;;2.93;1.50;;;;;;;;;;5057809;28;20211;-66
2021/10/25 13:51:43;;;;;;;2.60;1.73;;;;;;;;;;5049831;28;20225;-66
2021/10/25 13:54:14;;;;;;;2.57;2.00;;;;;;;;;;5042464;28;20664;-66
2021/10/25 13:56:46;;;;;;;1.83;1.43;;;;;;;;;;5062204;28;20206;-64
2021/10/25 13:59:15;;;;;;;2.67;1.60;;;;;;;;;;5067139;28;20202;-65
2021/10/25 14:01:46;;;;;;;1.80;1.70;;;;;;;;;;5061410;28;20205;-66
2021/10/25 14:04:17;;;;;;;3.70;1.60;;;;;;;;;;5068420;28;20628;-66
2021/10/25 14:06:53;;;;;;;2.23;1.60;;;;;;;;;;5065667;28;20225;-65
2021/10/25 14:09:33;;;;;;;1.87;1.47;;;;;;;;;;5062421;28;20206;-65
2021/10/25 14:12:04;;;;;;;1.67;1.57;;;;;;;;;;5065263;28;20191;-64
2021/10/25 14:14:37;;;;;;;2.63;1.67;;;;;;;;;;5065064;28;20186;-65
2021/10/25 14:17:09;;;;;;;2.33;1.60;;;;;;;;;;5060898;28;20206;-67
2021/10/25 14:19:40;;;;;;;1.97;1.70;;;;;;;;;;5074550;28;20279;-67
2021/10/25 14:22:08;;;;;;;1.77;1.53;;;;;;;;;;5059642;28;20201;-67
2021/10/25 14:24:39;;;;;;;1.40;1.30;;;;;;;;;;5046888;28;20193;-67
2021/10/25 14:27:09;;;;;;;2.27;1.37;;;;;;;;;;5061655;28;20654;-66
2021/10/25 14:29:38;;;;;;;1.63;1.30;;;;;;;;;;5068746;28;20216;-67
2021/10/25 14:32:11;;;;;;;1.93;1.20;;;;;;;;;;5062440;28;20202;-66
2021/10/25 14:34:42;;;;;;;1.63;1.53;;;;;;;;;;5068677;28;20201;-66
2021/10/25 14:37:16;;;;;;;4.33;1.43;;;;;;;;;;5059925;28;20273;-66
2021/10/25 14:39:47;;;;;;;3.03;1.43;;;;;;;;;;5077227;28;21031;-66
2021/10/25 14:42:21;;;;;;;1.50;1.40;;;;;;;;;;5051258;28;20201;-66
2021/10/25 14:56:00;;;;;;;1.70;1.60;;;;;;;;;;5046461;28;20210;-67
2021/10/25 14:58:31;;;;;;;1.73;1.37;;;;;;;;;;5026325;28;20201;-67
2021/10/25 15:01:03;;;;;;;2.00;1.50;;;;;;;;;;5047490;28;20218;-64
2021/10/25 15:03:36;;;;;;;2.53;1.47;;;;;;;;;;5029144;28;20294;-64
2021/10/25 15:06:07;;;;;;;2.97;1.70;;;;;;;;;;5028136;28;20214;-66
2021/10/25 15:08:38;;;;;;;1.53;1.43;;;;;;;;;;5034425;28;20226;-67
2021/10/25 15:11:09;;;;;;;2.80;1.60;;;;;;;;;;5047580;28;20222;-67
2021/10/25 15:13:40;;;;;;;2.50;1.60;;;;;;;;;;5044193;28;20285;-66
2021/10/25 15:16:10;;;;;;;2.23;1.77;;;;;;;;;;5047110;28;20194;-66
2021/10/25 15:18:41;;;;;;;1.70;1.40;;;;;;;;;;5025054;28;20249;-66
2021/10/25 15:21:08;;;;;;;1.83;1.70;;;;;;;;;;5031775;28;20234;-64
2021/10/25 15:23:39;;;;;;;1.77;1.50;;;;;;;;;;5027184;28;20199;-65
2021/10/25 15:26:11;;;;;;;2.30;1.77;;;;;;;;;;5030081;28;20207;-66
2021/10/25 15:28:41;;;;;;;1.93;1.50;;;;;;;;;;5014569;28;20290;-65
2021/10/25 15:31:20;;;;;;;1.93;1.43;;;;;;;;;;5025961;28;20242;-68
2021/10/25 15:34:07;;;;;;;2.03;1.60;;;;;;;;;;5016008;28;20218;-68
2021/10/25 15:37:00;;;;;;;2.03;1.50;;;;;;;;;;5028844;28;20203;-68
2021/10/25 15:40:12;;;;;;;3.70;2.33;;;;;;;;;;5038424;28;20274;-68
2021/10/25 15:43:27;;;;;;;2.03;1.67;;;;;;;;;;5019501;28;20299;-64
2021/10/25 15:46:19;;;;;;;1.43;1.27;;;;;;;;;;5030887;28;20266;-68
2021/10/25 15:49:08;;;;;;;1.87;1.77;;;;;;;;;;5027628;28;20199;-67
2021/10/25 15:52:05;;;;;;;1.87;1.53;;;;;;;;;;5027823;28;20221;-67
2021/10/25 15:54:40;;;;;;;2.33;1.67;;;;;;;;;;4999491;28;20211;-68
2021/10/25 15:57:22;;;;;;;2.10;1.87;;;;;;;;;;5016982;28;20214;-64
2021/10/25 15:59:54;;;;;;;1.53;1.43;;;;;;;;;;5029513;28;20211;-68
2021/10/25 16:02:31;;;;;;;1.80;1.67;;;;;;;;;;5033659;28;20687;-68
2021/10/25 16:05:26;;;;;;;1.90;1.43;;;;;;;;;;5031368;28;20195;-66
2021/10/25 16:08:05;;;;;;;1.60;1.50;;;;;;;;;;5025972;28;20215;-68
2021/10/25 16:10:44;;;;;;;1.43;1.33;;;;;;;;;;5014845;28;20257;-65
2021/10/25 16:13:22;;;;;;;1.40;1.30;;;;;;;;;;5027885;28;20261;-66
2021/10/25 16:16:00;;;;;;;3.23;1.83;;;;;;;;;;5029698;28;20203;-68
2021/10/25 16:18:33;;;;;;;2.03;1.80;;;;;;;;;;4990580;28;20211;-66
2021/10/25 16:21:14;;;;;;;2.33;1.93;;;;;;;;;;5030564;28;20237;-65
2021/10/25 16:24:03;;;;;;;1.63;1.50;;;;;;;;;;5037616;28;20207;-67
2021/10/25 16:26:50;;;;;;;1.97;1.60;;;;;;;;;;5046742;28;20195;-65
2021/10/25 16:29:40;;;;;;;2.63;1.50;;;;;;;;;;4997890;28;20295;-65
2021/10/25 16:32:18;;;;;;;1.97;1.70;;;;;;;;;;5020759;28;20250;-68
2021/10/25 16:34:56;;;;;;;1.70;1.57;;;;;;;;;;5033051;28;20217;-67
2021/10/25 16:38:11;;;;;;;2.03;1.83;;;;;;;;;;5015522;28;20214;-68
2021/10/25 16:40:52;;;;;;;2.00;1.80;;;;;;;;;;5033679;28;20199;-67
2021/10/25 16:43:34;;;;;;;1.93;1.80;;;;;;;;;;5034522;28;20227;-66
2021/10/25 16:46:16;;;;;;;2.20;1.80;;;;;;;;;;5035426;28;20206;-65
2021/10/25 16:49:15;;;;;;;2.80;1.73;;;;;;;;;;5039644;28;20278;-66
2021/10/25 16:52:17;;;;;;;3.10;1.43;;;;;;;;;;5018188;28;20223;-69
2021/10/25 17:10:12;;;;;;;1.93;1.70;;;;;;;;;;4996238;28;20640;-68
2021/10/25 17:12:50;;;;;;;2.17;1.97;;;;;;;;;;5025587;28;20214;-66
2021/10/25 17:15:39;;;;;;;2.90;2.47;;;;;;;;;;5018028;28;20191;-65
2021/10/25 17:18:14;;;;;;;2.00;1.80;;;;;;;;;;5038248;28;20199;-66
2021/10/25 17:21:11;;;;;;;2.13;1.80;;;;;;;;;;5043179;28;20320;-68